sensor_id;sensor_type;location;lat;lon;timestamp;pressure;altitude;pressure_sealevel;temperature;humidity
68986;BME280;56035;37.534;-122.308;2022-11-20T00:01:18;101855.09;;;13.54;40.98
68986;BME280;56035;37.534;-122.308;2022-11-20T00:03:44;101855.41;;;13.46;39.40
68986;BME280;56035;37.534;-122.308;2022-11-20T00:06:13;101847.28;;;13.32;42.04
68986;BME280;56035;37.534;-122.308;2022-11-20T00:08:40;101855.91;;;13.24;40.71
68986;BME280;56035;37.534;-122.308;2022-11-20T00:11:07;101855.19;;;13.10;40.76
68986;BME280;56035;37.534;-122.308;2022-11-20T00:13:34;101854.44;;;13.03;41.74
68986;BME280;56035;37.534;-122.308;2022-11-20T00:16:02;101853.75;;;12.89;42.68
68986;BME280;56035;37.534;-122.308;2022-11-20T00:18:29;101853.09;;;12.76;43.55
68986;BME280;56035;37.534;-122.308;2022-11-20T00:21:05;101857.97;;;12.55;43.34
68986;BME280;56035;37.534;-122.308;2022-11-20T00:23:31;101862.78;;;12.41;43.75
68986;BME280;56035;37.534;-122.308;2022-11-20T00:26:04;101857.63;;;12.27;43.75
68986;BME280;56035;37.534;-122.308;2022-11-20T00:28:31;101860.50;;;12.13;45.52
68986;BME280;56035;37.534;-122.308;2022-11-20T00:31:02;101864.44;;;11.99;45.23
68986;BME280;56035;37.534;-122.308;2022-11-20T00:33:28;101862.63;;;11.86;45.82
68986;BME280;56035;37.534;-122.308;2022-11-20T00:36:00;101861.22;;;11.70;47.10
68986;BME280;56035;37.534;-122.308;2022-11-20T00:38:26;101865.38;;;11.55;47.60
68986;BME280;56035;37.534;-122.308;2022-11-20T00:40:57;101860.38;;;11.38;48.10
68986;BME280;56035;37.534;-122.308;2022-11-20T00:43:24;101855.53;;;11.27;48.16
68986;BME280;56035;37.534;-122.308;2022-11-20T00:45:55;101861.13;;;11.14;48.88
68986;BME280;56035;37.534;-122.308;2022-11-20T00:48:21;101864.16;;;10.99;49.06
68986;BME280;56035;37.534;-122.308;2022-11-20T00:50:47;101866.75;;;10.87;48.86
68986;BME280;56035;37.534;-122.308;2022-11-20T00:53:14;101865.94;;;10.73;49.81
68986;BME280;56035;37.534;-122.308;2022-11-20T00:55:40;101875.28;;;10.59;49.48
68986;BME280;56035;37.534;-122.308;2022-11-20T00:58:06;101872.56;;;10.46;49.96
68986;BME280;56035;37.534;-122.308;2022-11-20T01:00:32;101884.44;;;10.33;50.94
68986;BME280;56035;37.534;-122.308;2022-11-20T01:02:58;101872.56;;;10.19;51.16
68986;BME280;56035;37.534;-122.308;2022-11-20T01:05:25;101878.28;;;10.04;52.30
68986;BME280;56035;37.534;-122.308;2022-11-20T01:07:51;101882.91;;;9.91;51.98
68986;BME280;56035;37.534;-122.308;2022-11-20T01:10:17;101882.91;;;9.77;52.46
68986;BME280;56035;37.534;-122.308;2022-11-20T01:12:43;101889.88;;;9.67;52.71
68986;BME280;56035;37.534;-122.308;2022-11-20T01:15:29;101884.78;;;9.57;52.71
68986;BME280;56035;37.534;-122.308;2022-11-20T01:17:55;101893.00;;;9.44;53.26
68986;BME280;56035;37.534;-122.308;2022-11-20T01:20:21;101893.63;;;9.32;53.00
68986;BME280;56035;37.534;-122.308;2022-11-20T01:22:47;101894.19;;;9.21;53.49
68986;BME280;56035;37.534;-122.308;2022-11-20T01:25:13;101894.56;;;9.11;53.62
68986;BME280;56035;37.534;-122.308;2022-11-20T01:27:39;101903.00;;;9.03;53.22
68986;BME280;56035;37.534;-122.308;2022-11-20T01:30:06;101899.97;;;8.91;53.93
68986;BME280;56035;37.534;-122.308;2022-11-20T01:32:32;101905.00;;;8.81;54.29
68986;BME280;56035;37.534;-122.308;2022-11-20T01:34:58;101911.06;;;8.70;54.88
68986;BME280;56035;37.534;-122.308;2022-11-20T01:37:24;101920.31;;;8.62;54.80
68986;BME280;56035;37.534;-122.308;2022-11-20T01:39:50;101920.88;;;8.51;55.51
68986;BME280;56035;37.534;-122.308;2022-11-20T01:42:17;101922.06;;;8.42;55.37
68986;BME280;56035;37.534;-122.308;2022-11-20T01:45:01;101930.44;;;8.34;55.55
68986;BME280;56035;37.534;-122.308;2022-11-20T01:47:35;101925.75;;;8.28;56.22
68986;BME280;56035;37.534;-122.308;2022-11-20T01:50:26;101934.50;;;8.16;57.11
68986;BME280;56035;37.534;-122.308;2022-11-20T01:53:05;101931.44;;;8.05;57.64
68986;BME280;56035;37.534;-122.308;2022-11-20T01:55:35;101931.78;;;7.95;57.90
68986;BME280;56035;37.534;-122.308;2022-11-20T01:58:03;101930.84;;;7.88;57.67
68986;BME280;56035;37.534;-122.308;2022-11-20T02:00:30;101930.97;;;7.80;58.10
68986;BME280;56035;37.534;-122.308;2022-11-20T02:02:59;101937.00;;;7.68;58.30
68986;BME280;56035;37.534;-122.308;2022-11-20T02:07:59;101938.53;;;7.56;59.67
68986;BME280;56035;37.534;-122.308;2022-11-20T02:10:26;101939.97;;;7.52;59.71
68986;BME280;56035;37.534;-122.308;2022-11-20T02:12:53;101950.00;;;7.45;58.84
68986;BME280;56035;37.534;-122.308;2022-11-20T02:15:38;101949.44;;;7.35;60.33
68986;BME280;56035;37.534;-122.308;2022-11-20T02:18:05;101955.06;;;7.26;61.14
68986;BME280;56035;37.534;-122.308;2022-11-20T02:20:32;101954.75;;;7.21;61.15
68986;BME280;56035;37.534;-122.308;2022-11-20T02:23:27;101955.53;;;7.15;60.68
68986;BME280;56035;37.534;-122.308;2022-11-20T02:25:55;101957.31;;;7.08;60.46
68986;BME280;56035;37.534;-122.308;2022-11-20T02:28:23;101954.69;;;7.00;61.76
68986;BME280;56035;37.534;-122.308;2022-11-20T02:30:50;101959.03;;;6.94;62.17
68986;BME280;56035;37.534;-122.308;2022-11-20T02:33:16;101976.03;;;6.90;61.68
68986;BME280;56035;37.534;-122.308;2022-11-20T02:35:45;101968.75;;;6.82;62.09
68986;BME280;56035;37.534;-122.308;2022-11-20T02:38:11;101975.81;;;6.76;62.89
68986;BME280;56035;37.534;-122.308;2022-11-20T02:40:38;101976.09;;;6.67;63.04
68986;BME280;56035;37.534;-122.308;2022-11-20T02:43:04;101971.41;;;6.61;63.21
68986;BME280;56035;37.534;-122.308;2022-11-20T02:45:30;101967.50;;;6.55;63.73
68986;BME280;56035;37.534;-122.308;2022-11-20T02:47:57;101971.66;;;6.51;63.60
68986;BME280;56035;37.534;-122.308;2022-11-20T02:50:23;101981.47;;;6.45;65.24
68986;BME280;56035;37.534;-122.308;2022-11-20T02:52:49;101976.03;;;6.37;64.40
68986;BME280;56035;37.534;-122.308;2022-11-20T02:55:15;101975.56;;;6.33;65.54
68986;BME280;56035;37.534;-122.308;2022-11-20T02:57:41;101981.13;;;6.25;65.64
68986;BME280;56035;37.534;-122.308;2022-11-20T03:00:08;101980.81;;;6.20;65.60
68986;BME280;56035;37.534;-122.308;2022-11-20T03:02:34;101986.16;;;6.14;65.90
68986;BME280;56035;37.534;-122.308;2022-11-20T03:05:01;101982.94;;;6.10;67.11
68986;BME280;56035;37.534;-122.308;2022-11-20T03:07:27;101987.09;;;6.06;67.35
68986;BME280;56035;37.534;-122.308;2022-11-20T03:09:53;101985.09;;;6.00;68.30
68986;BME280;56035;37.534;-122.308;2022-11-20T03:12:19;101984.59;;;5.96;67.35
68986;BME280;56035;37.534;-122.308;2022-11-20T03:14:45;101991.28;;;5.94;67.36
68986;BME280;56035;37.534;-122.308;2022-11-20T03:17:11;101989.06;;;5.89;68.24
68986;BME280;56035;37.534;-122.308;2022-11-20T03:19:37;101995.91;;;5.85;69.07
68986;BME280;56035;37.534;-122.308;2022-11-20T03:22:04;101988.94;;;5.82;68.77
68986;BME280;56035;37.534;-122.308;2022-11-20T03:24:30;101992.19;;;5.78;69.45
68986;BME280;56035;37.534;-122.308;2022-11-20T03:26:56;101990.00;;;5.73;69.81
68986;BME280;56035;37.534;-122.308;2022-11-20T03:29:22;101995.84;;;5.70;69.84
68986;BME280;56035;37.534;-122.308;2022-11-20T03:31:48;102005.44;;;5.66;70.04
68986;BME280;56035;37.534;-122.308;2022-11-20T03:34:14;101995.72;;;5.63;71.11
68986;BME280;56035;37.534;-122.308;2022-11-20T03:36:42;102004.28;;;5.60;70.81
68986;BME280;56035;37.534;-122.308;2022-11-20T03:39:09;101994.72;;;5.56;71.33
68986;BME280;56035;37.534;-122.308;2022-11-20T03:41:37;102004.97;;;5.54;71.34
68986;BME280;56035;37.534;-122.308;2022-11-20T03:44:06;102011.00;;;5.50;72.20
68986;BME280;56035;37.534;-122.308;2022-11-20T03:46:32;102015.09;;;5.46;73.37
68986;BME280;56035;37.534;-122.308;2022-11-20T03:48:59;102004.91;;;5.39;74.60
68986;BME280;56035;37.534;-122.308;2022-11-20T03:51:28;102009.69;;;5.37;74.62
68986;BME280;56035;37.534;-122.308;2022-11-20T03:53:56;102012.75;;;5.34;74.67
68986;BME280;56035;37.534;-122.308;2022-11-20T03:56:28;102018.22;;;5.34;74.07
68986;BME280;56035;37.534;-122.308;2022-11-20T03:58:55;102032.94;;;5.33;74.56
68986;BME280;56035;37.534;-122.308;2022-11-20T04:01:23;102026.44;;;5.34;75.40
68986;BME280;56035;37.534;-122.308;2022-11-20T04:03:52;102032.56;;;5.36;76.39
68986;BME280;56035;37.534;-122.308;2022-11-20T04:06:20;102027.97;;;5.37;75.31
68986;BME280;56035;37.534;-122.308;2022-11-20T04:08:47;102037.16;;;5.36;76.03
68986;BME280;56035;37.534;-122.308;2022-11-20T04:11:19;102031.19;;;5.32;75.86
68986;BME280;56035;37.534;-122.308;2022-11-20T04:13:50;102029.50;;;5.31;76.23
68986;BME280;56035;37.534;-122.308;2022-11-20T04:16:17;102033.28;;;5.30;76.36
68986;BME280;56035;37.534;-122.308;2022-11-20T04:18:44;102032.44;;;5.30;75.78
68986;BME280;56035;37.534;-122.308;2022-11-20T04:21:10;102031.56;;;5.29;76.36
68986;BME280;56035;37.534;-122.308;2022-11-20T04:23:37;102037.91;;;5.30;76.74
68986;BME280;56035;37.534;-122.308;2022-11-20T04:26:05;102033.63;;;5.27;76.54
68986;BME280;56035;37.534;-122.308;2022-11-20T04:28:32;102039.25;;;5.26;76.44
68986;BME280;56035;37.534;-122.308;2022-11-20T04:31:15;102036.53;;;5.26;76.81
68986;BME280;56035;37.534;-122.308;2022-11-20T04:33:41;102027.47;;;5.25;76.82
68986;BME280;56035;37.534;-122.308;2022-11-20T04:36:29;102033.97;;;5.24;76.83
68986;BME280;56035;37.534;-122.308;2022-11-20T04:39:01;102042.34;;;5.23;76.23
68986;BME280;56035;37.534;-122.308;2022-11-20T04:41:31;102045.25;;;5.21;77.04
68986;BME280;56035;37.534;-122.308;2022-11-20T04:43:59;102048.34;;;5.18;76.40
68986;BME280;56035;37.534;-122.308;2022-11-20T04:46:30;102053.97;;;5.16;76.98
68986;BME280;56035;37.534;-122.308;2022-11-20T04:48:56;102047.84;;;5.14;77.51
68986;BME280;56035;37.534;-122.308;2022-11-20T04:51:23;102048.34;;;5.10;76.69
68986;BME280;56035;37.534;-122.308;2022-11-20T04:53:49;102053.16;;;5.08;76.77
68986;BME280;56035;37.534;-122.308;2022-11-20T04:56:15;102058.13;;;5.04;77.43
68986;BME280;56035;37.534;-122.308;2022-11-20T04:58:42;102060.84;;;5.04;77.79
68986;BME280;56035;37.534;-122.308;2022-11-20T05:01:17;102065.47;;;5.04;77.25
68986;BME280;56035;37.534;-122.308;2022-11-20T05:03:44;102060.34;;;5.01;77.58
68986;BME280;56035;37.534;-122.308;2022-11-20T05:06:12;102069.88;;;4.97;77.22
68986;BME280;56035;37.534;-122.308;2022-11-20T05:08:39;102071.97;;;4.95;77.52
68986;BME280;56035;37.534;-122.308;2022-11-20T05:11:08;102084.06;;;4.92;77.53
68986;BME280;56035;37.534;-122.308;2022-11-20T05:13:34;102073.84;;;4.86;76.96
68986;BME280;56035;37.534;-122.308;2022-11-20T05:16:05;102080.50;;;4.83;77.23
68986;BME280;56035;37.534;-122.308;2022-11-20T05:18:33;102076.41;;;4.79;77.30
68986;BME280;56035;37.534;-122.308;2022-11-20T05:21:00;102079.66;;;4.75;77.63
68986;BME280;56035;37.534;-122.308;2022-11-20T05:23:27;102075.41;;;4.72;77.30
68986;BME280;56035;37.534;-122.308;2022-11-20T05:25:56;102072.66;;;4.72;77.29
68986;BME280;56035;37.534;-122.308;2022-11-20T05:28:22;102082.22;;;4.68;78.33
68986;BME280;56035;37.534;-122.308;2022-11-20T05:30:49;102077.78;;;4.59;78.51
68986;BME280;56035;37.534;-122.308;2022-11-20T05:33:15;102078.13;;;4.56;78.19
68986;BME280;56035;37.534;-122.308;2022-11-20T05:35:42;102085.97;;;4.51;79.10
68986;BME280;56035;37.534;-122.308;2022-11-20T05:38:08;102081.34;;;4.43;79.28
68986;BME280;56035;37.534;-122.308;2022-11-20T05:40:34;102083.56;;;4.39;79.07
68986;BME280;56035;37.534;-122.308;2022-11-20T05:43:01;102086.47;;;4.38;79.70
68986;BME280;56035;37.534;-122.308;2022-11-20T05:45:27;102076.75;;;4.35;79.09
68986;BME280;56035;37.534;-122.308;2022-11-20T05:47:57;102086.63;;;4.36;80.88
68986;BME280;56035;37.534;-122.308;2022-11-20T05:50:23;102081.19;;;4.36;81.42
68986;BME280;56035;37.534;-122.308;2022-11-20T05:52:49;102085.63;;;4.29;80.81
68986;BME280;56035;37.534;-122.308;2022-11-20T05:55:15;102084.41;;;4.23;81.13
68986;BME280;56035;37.534;-122.308;2022-11-20T05:57:41;102076.75;;;4.19;82.06
68986;BME280;56035;37.534;-122.308;2022-11-20T06:00:08;102089.16;;;4.13;80.88
68986;BME280;56035;37.534;-122.308;2022-11-20T06:02:35;102098.00;;;4.07;80.71
68986;BME280;56035;37.534;-122.308;2022-11-20T06:05:01;102096.47;;;4.05;81.93
68986;BME280;56035;37.534;-122.308;2022-11-20T06:07:27;102095.59;;;3.96;82.64
68986;BME280;56035;37.534;-122.308;2022-11-20T06:09:53;102098.47;;;3.94;82.92
68986;BME280;56035;37.534;-122.308;2022-11-20T06:12:19;102102.19;;;3.85;82.63
68986;BME280;56035;37.534;-122.308;2022-11-20T06:14:45;102104.59;;;3.80;82.53
68986;BME280;56035;37.534;-122.308;2022-11-20T06:17:12;102098.09;;;3.73;81.82
68986;BME280;56035;37.534;-122.308;2022-11-20T06:19:38;102103.00;;;3.69;82.26
68986;BME280;56035;37.534;-122.308;2022-11-20T06:22:05;102103.34;;;3.66;82.36
68986;BME280;56035;37.534;-122.308;2022-11-20T06:24:31;102106.91;;;3.67;83.53
68986;BME280;56035;37.534;-122.308;2022-11-20T06:26:57;102109.00;;;3.73;84.13
68986;BME280;56035;37.534;-122.308;2022-11-20T06:29:23;102108.44;;;3.69;82.78
68986;BME280;56035;37.534;-122.308;2022-11-20T06:31:49;102117.31;;;3.71;83.26
68986;BME280;56035;37.534;-122.308;2022-11-20T06:34:15;102115.63;;;3.70;83.36
68986;BME280;56035;37.534;-122.308;2022-11-20T06:36:41;102117.66;;;3.68;82.87
68986;BME280;56035;37.534;-122.308;2022-11-20T06:39:07;102119.16;;;3.63;83.01
68986;BME280;56035;37.534;-122.308;2022-11-20T06:41:33;102109.44;;;3.60;82.50
68986;BME280;56035;37.534;-122.308;2022-11-20T06:44:00;102117.09;;;3.57;82.16
68986;BME280;56035;37.534;-122.308;2022-11-20T06:46:26;102115.03;;;3.50;82.43
68986;BME280;56035;37.534;-122.308;2022-11-20T06:48:52;102121.97;;;3.45;82.53
68986;BME280;56035;37.534;-122.308;2022-11-20T06:51:19;102124.16;;;3.41;82.21
68986;BME280;56035;37.534;-122.308;2022-11-20T06:53:45;102123.78;;;3.36;82.73
68986;BME280;56035;37.534;-122.308;2022-11-20T06:56:11;102129.53;;;3.33;82.31
68986;BME280;56035;37.534;-122.308;2022-11-20T06:58:37;102124.78;;;3.27;83.22
68986;BME280;56035;37.534;-122.308;2022-11-20T07:01:06;102126.78;;;3.25;82.97
68986;BME280;56035;37.534;-122.308;2022-11-20T07:03:32;102132.88;;;3.19;83.02
68986;BME280;56035;37.534;-122.308;2022-11-20T07:06:00;102127.91;;;3.14;82.99
68986;BME280;56035;37.534;-122.308;2022-11-20T07:08:26;102129.41;;;3.09;84.17
68986;BME280;56035;37.534;-122.308;2022-11-20T07:10:56;102132.28;;;3.07;83.07
68986;BME280;56035;37.534;-122.308;2022-11-20T07:13:22;102134.63;;;3.02;84.14
68986;BME280;56035;37.534;-122.308;2022-11-20T07:15:48;102135.09;;;2.97;84.83
68986;BME280;56035;37.534;-122.308;2022-11-20T07:18:15;102131.84;;;2.94;84.70
68986;BME280;56035;37.534;-122.308;2022-11-20T07:20:41;102134.34;;;2.87;85.17
68986;BME280;56035;37.534;-122.308;2022-11-20T07:23:07;102137.38;;;2.84;86.53
68986;BME280;56035;37.534;-122.308;2022-11-20T07:25:33;102127.47;;;2.75;86.73
68986;BME280;56035;37.534;-122.308;2022-11-20T07:28:00;102135.75;;;2.73;86.36
68986;BME280;56035;37.534;-122.308;2022-11-20T07:30:27;102134.91;;;2.73;85.89
68986;BME280;56035;37.534;-122.308;2022-11-20T07:32:54;102136.91;;;2.71;86.22
68986;BME280;56035;37.534;-122.308;2022-11-20T07:35:21;102139.09;;;2.67;86.15
68986;BME280;56035;37.534;-122.308;2022-11-20T07:37:48;102133.00;;;2.65;86.68
68986;BME280;56035;37.534;-122.308;2022-11-20T07:40:15;102126.66;;;2.65;85.97
68986;BME280;56035;37.534;-122.308;2022-11-20T07:42:52;102129.56;;;2.63;86.28
68986;BME280;56035;37.534;-122.308;2022-11-20T07:45:19;102127.69;;;2.64;86.96
68986;BME280;56035;37.534;-122.308;2022-11-20T07:47:45;102139.34;;;2.56;87.25
68986;BME280;56035;37.534;-122.308;2022-11-20T07:50:12;102130.34;;;2.55;87.00
68986;BME280;56035;37.534;-122.308;2022-11-20T07:52:38;102136.78;;;2.54;86.92
68986;BME280;56035;37.534;-122.308;2022-11-20T07:55:05;102135.38;;;2.50;86.92
68986;BME280;56035;37.534;-122.308;2022-11-20T07:57:31;102125.53;;;2.49;87.07
68986;BME280;56035;37.534;-122.308;2022-11-20T07:59:57;102125.66;;;2.48;87.25
68986;BME280;56035;37.534;-122.308;2022-11-20T08:02:23;102127.53;;;2.47;88.90
68986;BME280;56035;37.534;-122.308;2022-11-20T08:04:50;102125.97;;;2.45;89.30
68986;BME280;56035;37.534;-122.308;2022-11-20T08:07:16;102128.88;;;2.43;89.98
68986;BME280;56035;37.534;-122.308;2022-11-20T08:09:42;102130.72;;;2.43;88.70
68986;BME280;56035;37.534;-122.308;2022-11-20T08:12:09;102127.31;;;2.41;89.13
68986;BME280;56035;37.534;-122.308;2022-11-20T08:15:01;102121.31;;;2.37;88.33
68986;BME280;56035;37.534;-122.308;2022-11-20T08:17:27;102129.47;;;2.37;89.51
68986;BME280;56035;37.534;-122.308;2022-11-20T08:19:53;102123.31;;;2.35;89.28
68986;BME280;56035;37.534;-122.308;2022-11-20T08:22:19;102127.06;;;2.34;88.93
68986;BME280;56035;37.534;-122.308;2022-11-20T08:24:46;102129.06;;;2.32;88.31
68986;BME280;56035;37.534;-122.308;2022-11-20T08:27:12;102130.25;;;2.29;90.14
68986;BME280;56035;37.534;-122.308;2022-11-20T08:29:38;102135.16;;;2.26;90.19
68986;BME280;56035;37.534;-122.308;2022-11-20T08:32:05;102144.31;;;2.25;89.39
68986;BME280;56035;37.534;-122.308;2022-11-20T08:34:31;102137.47;;;2.21;89.61
68986;BME280;56035;37.534;-122.308;2022-11-20T08:36:57;102135.78;;;2.20;89.40
68986;BME280;56035;37.534;-122.308;2022-11-20T08:39:23;102124.19;;;2.18;89.15
68986;BME280;56035;37.534;-122.308;2022-11-20T08:41:49;102128.91;;;2.16;88.77
68986;BME280;56035;37.534;-122.308;2022-11-20T08:44:15;102134.34;;;2.16;89.88
68986;BME280;56035;37.534;-122.308;2022-11-20T08:46:42;102133.66;;;2.14;89.44
68986;BME280;56035;37.534;-122.308;2022-11-20T08:49:11;102125.81;;;2.10;89.14
68986;BME280;56035;37.534;-122.308;2022-11-20T08:51:38;102127.50;;;2.11;89.72
68986;BME280;56035;37.534;-122.308;2022-11-20T08:54:04;102127.22;;;2.15;91.41
68986;BME280;56035;37.534;-122.308;2022-11-20T08:56:30;102124.97;;;2.10;90.82
68986;BME280;56035;37.534;-122.308;2022-11-20T08:58:57;102124.09;;;2.09;90.36
68986;BME280;56035;37.534;-122.308;2022-11-20T09:01:25;102121.41;;;2.09;90.86
68986;BME280;56035;37.534;-122.308;2022-11-20T09:03:51;102119.66;;;2.08;90.52
68986;BME280;56035;37.534;-122.308;2022-11-20T09:06:18;102119.34;;;2.11;91.32
68986;BME280;56035;37.534;-122.308;2022-11-20T09:08:44;102113.25;;;2.09;90.92
68986;BME280;56035;37.534;-122.308;2022-11-20T09:11:10;102115.78;;;2.11;91.15
68986;BME280;56035;37.534;-122.308;2022-11-20T09:13:37;102114.63;;;2.14;91.41
68986;BME280;56035;37.534;-122.308;2022-11-20T09:16:08;102113.91;;;2.11;90.58
68986;BME280;56035;37.534;-122.308;2022-11-20T09:18:35;102108.94;;;2.07;91.32
68986;BME280;56035;37.534;-122.308;2022-11-20T09:21:07;102113.84;;;2.03;91.09
68986;BME280;56035;37.534;-122.308;2022-11-20T09:23:36;102122.00;;;2.03;90.71
68986;BME280;56035;37.534;-122.308;2022-11-20T09:26:08;102123.16;;;2.01;91.56
68986;BME280;56035;37.534;-122.308;2022-11-20T09:28:35;102120.56;;;1.99;91.71
68986;BME280;56035;37.534;-122.308;2022-11-20T09:31:17;102122.44;;;1.99;91.52
68986;BME280;56035;37.534;-122.308;2022-11-20T09:33:45;102110.16;;;1.95;91.53
68986;BME280;56035;37.534;-122.308;2022-11-20T09:36:11;102113.66;;;1.87;91.30
68986;BME280;56035;37.534;-122.308;2022-11-20T09:38:37;102117.06;;;1.89;91.01
68986;BME280;56035;37.534;-122.308;2022-11-20T09:41:06;102113.34;;;1.90;92.02
68986;BME280;56035;37.534;-122.308;2022-11-20T09:46:26;102114.50;;;1.87;92.20
68986;BME280;56035;37.534;-122.308;2022-11-20T09:49:17;102114.09;;;1.82;93.15
68986;BME280;56035;37.534;-122.308;2022-11-20T09:54:31;102121.31;;;1.74;93.89
68986;BME280;56035;37.534;-122.308;2022-11-20T09:57:01;102116.31;;;1.69;93.28
68986;BME280;56035;37.534;-122.308;2022-11-20T09:59:41;102117.78;;;1.63;93.12
68986;BME280;56035;37.534;-122.308;2022-11-20T10:05:11;102116.38;;;1.59;93.97
68986;BME280;56035;37.534;-122.308;2022-11-20T10:07:52;102117.50;;;1.57;93.30
68986;BME280;56035;37.534;-122.308;2022-11-20T10:10:38;102128.53;;;1.55;93.39
68986;BME280;56035;37.534;-122.308;2022-11-20T10:13:35;102137.00;;;1.52;93.29
68986;BME280;56035;37.534;-122.308;2022-11-20T10:19:36;102131.56;;;1.52;93.73
68986;BME280;56035;37.534;-122.308;2022-11-20T10:25:06;102135.13;;;1.53;94.34
68986;BME280;56035;37.534;-122.308;2022-11-20T10:28:19;102132.41;;;1.53;94.37
68986;BME280;56035;37.534;-122.308;2022-11-20T10:31:01;102130.72;;;1.52;94.59
68986;BME280;56035;37.534;-122.308;2022-11-20T10:33:33;102126.72;;;1.46;94.09
68986;BME280;56035;37.534;-122.308;2022-11-20T10:36:26;102126.72;;;1.46;94.64
68986;BME280;56035;37.534;-122.308;2022-11-20T10:39:39;102134.72;;;1.48;94.61
68986;BME280;56035;37.534;-122.308;2022-11-20T10:42:19;102130.44;;;1.45;94.25
68986;BME280;56035;37.534;-122.308;2022-11-20T10:44:53;102129.28;;;1.48;94.92
68986;BME280;56035;37.534;-122.308;2022-11-20T10:47:27;102135.59;;;1.48;95.16
68986;BME280;56035;37.534;-122.308;2022-11-20T10:49:58;102135.28;;;1.51;95.62
68986;BME280;56035;37.534;-122.308;2022-11-20T10:55:45;102131.69;;;1.60;96.37
68986;BME280;56035;37.534;-122.308;2022-11-20T11:01:13;102127.78;;;1.63;95.92
68986;BME280;56035;37.534;-122.308;2022-11-20T11:03:41;102127.78;;;1.63;95.80
68986;BME280;56035;37.534;-122.308;2022-11-20T11:08:47;102127.53;;;1.56;95.67
68986;BME280;56035;37.534;-122.308;2022-11-20T11:11:22;102136.69;;;1.55;96.10
68986;BME280;56035;37.534;-122.308;2022-11-20T11:13:51;102129.97;;;1.50;96.12
68986;BME280;56035;37.534;-122.308;2022-11-20T11:16:23;102129.13;;;1.49;96.15
68986;BME280;56035;37.534;-122.308;2022-11-20T11:18:49;102142.41;;;1.52;96.76
68986;BME280;56035;37.534;-122.308;2022-11-20T11:21:23;102141.28;;;1.55;96.89
68986;BME280;56035;37.534;-122.308;2022-11-20T11:24:01;102140.97;;;1.58;97.43
68986;BME280;56035;37.534;-122.308;2022-11-20T11:26:28;102142.25;;;1.63;97.99
68986;BME280;56035;37.534;-122.308;2022-11-20T11:29:03;102135.25;;;1.61;97.70
68986;BME280;56035;37.534;-122.308;2022-11-20T11:31:31;102138.94;;;1.60;97.52
68986;BME280;56035;37.534;-122.308;2022-11-20T11:34:05;102145.09;;;1.62;97.41
68986;BME280;56035;37.534;-122.308;2022-11-20T11:36:33;102142.38;;;1.62;97.68
68986;BME280;56035;37.534;-122.308;2022-11-20T11:39:01;102141.53;;;1.61;97.71
68986;BME280;56035;37.534;-122.308;2022-11-20T11:41:31;102141.53;;;1.61;98.33
68986;BME280;56035;37.534;-122.308;2022-11-20T11:44:32;102142.09;;;1.65;98.23
68986;BME280;56035;37.534;-122.308;2022-11-20T11:47:46;102144.81;;;1.65;98.31
68986;BME280;56035;37.534;-122.308;2022-11-20T11:55:38;102148.22;;;1.67;98.95
68986;BME280;56035;37.534;-122.308;2022-11-20T12:01:08;102152.09;;;1.64;98.50
68986;BME280;56035;37.534;-122.308;2022-11-20T12:03:39;102153.13;;;1.63;98.69
68986;BME280;56035;37.534;-122.308;2022-11-20T12:06:14;102153.25;;;1.62;98.44
68986;BME280;56035;37.534;-122.308;2022-11-20T12:09:03;102152.09;;;1.64;98.96
68986;BME280;56035;37.534;-122.308;2022-11-20T12:11:34;102153.78;;;1.66;98.95
68986;BME280;56035;37.534;-122.308;2022-11-20T12:14:20;102148.31;;;1.75;99.26
68986;BME280;56035;37.534;-122.308;2022-11-20T12:16:51;102148.78;;;1.71;99.60
68986;BME280;56035;37.534;-122.308;2022-11-20T12:19:18;102159.09;;;1.67;99.04
68986;BME280;56035;37.534;-122.308;2022-11-20T12:29:50;102153.84;;;1.56;99.05
68986;BME280;56035;37.534;-122.308;2022-11-20T12:33:00;102157.69;;;1.53;99.22
68986;BME280;56035;37.534;-122.308;2022-11-20T12:43:27;102172.16;;;1.54;99.70
68986;BME280;56035;37.534;-122.308;2022-11-20T12:46:49;102169.75;;;1.51;100.00
68986;BME280;56035;37.534;-122.308;2022-11-20T12:49:52;102176.72;;;1.53;100.00
68986;BME280;56035;37.534;-122.308;2022-11-20T12:52:56;102178.19;;;1.48;100.00
68986;BME280;56035;37.534;-122.308;2022-11-20T12:55:47;102177.91;;;1.51;100.00
68986;BME280;56035;37.534;-122.308;2022-11-20T12:58:25;102183.16;;;1.52;100.00
68986;BME280;56035;37.534;-122.308;2022-11-20T13:01:23;102178.44;;;1.54;100.00
68986;BME280;56035;37.534;-122.308;2022-11-20T13:07:17;102189.44;;;1.53;100.00
68986;BME280;56035;37.534;-122.308;2022-11-20T13:09:49;102182.44;;;1.50;100.00
68986;BME280;56035;37.534;-122.308;2022-11-20T13:18:08;102174.16;;;1.52;100.00
68986;BME280;56035;37.534;-122.308;2022-11-20T13:20:42;102181.47;;;1.51;100.00
68986;BME280;56035;37.534;-122.308;2022-11-20T13:23:09;102184.88;;;1.53;100.00
68986;BME280;56035;37.534;-122.308;2022-11-20T13:25:37;102193.56;;;1.57;100.00
68986;BME280;56035;37.534;-122.308;2022-11-20T13:30:31;102190.16;;;1.55;100.00
68986;BME280;56035;37.534;-122.308;2022-11-20T13:33:09;102184.88;;;1.53;100.00
68986;BME280;56035;37.534;-122.308;2022-11-20T13:36:02;102193.00;;;1.53;100.00
68986;BME280;56035;37.534;-122.308;2022-11-20T13:38:43;102202.91;;;1.54;100.00
68986;BME280;56035;37.534;-122.308;2022-11-20T13:41:11;102200.19;;;1.54;100.00
68986;BME280;56035;37.534;-122.308;2022-11-20T13:43:59;102199.16;;;1.55;100.00
68986;BME280;56035;37.534;-122.308;2022-11-20T13:46:41;102200.88;;;1.56;100.00